Time;durP1;ratioP1;P1;durP2;ratioP2;P2;SDS_P1;SDS_P2;PMS_P1;PMS_P2;Temp;Humidity;BMP_temperature;BMP_pressure;BME280_temperature;BME280_humidity;BME280_pressure;Samples;Min_cycle;Max_cycle;Signal;HPM_P1;HPM_P2
2022/09/25 00:00:23;;;;;;;;;;;;;;;;;;5046388;28;19925;-80
2022/09/25 00:02:50;;;;;;;;;;;;;;;;;;5055691;28;19970;-80
2022/09/25 00:05:17;;;;;;;;;;;;;;;;;;5056025;28;20407;-80
2022/09/25 00:07:44;;;;;;;;;;;;;;;;;;5051791;28;19925;-79
2022/09/25 00:10:10;;;;;;;;;;;;;;;;;;5045972;28;19931;-80
2022/09/25 00:12:37;;;;;;;;;;;;;;;;;;5043313;28;19933;-80
2022/09/25 00:15:04;;;;;;;;;;;;;;;;;;5043383;28;20620;-79
2022/09/25 00:17:30;;;;;;;;;;;;;;;;;;5043350;28;20571;-78
2022/09/25 00:19:56;;;;;;;;;;;;;;;;;;5047283;28;20016;-79
2022/09/25 00:22:25;;;;;;;;;;;;;;;;;;5038377;28;19968;-79
2022/09/25 00:24:51;;;;;;;;;;;;;;;;;;5091121;22;20358;-52
2022/09/25 00:27:18;;;;;;;;;;;;;;;;;;5121697;28;20088;-50
2022/09/25 00:29:46;;;;;;;;;;;;;;;;;;5121545;28;19924;-51
2022/09/25 00:32:12;;;;;;;;;;;;;;;;;;5121339;28;19923;-54
2022/09/25 00:34:39;;;;;;;;;;;;;;;;;;5121098;28;19962;-54
2022/09/25 00:37:06;;;;;;;;;;;;;;;;;;5121194;28;19928;-52
2022/09/25 00:39:34;;;;;;;;;;;;;;;;;;5122032;28;19924;-49
2022/09/25 00:42:01;;;;;;;;;;;;;;;;;;5121499;28;19924;-49
2022/09/25 00:44:46;;;;;;;;;;;;;;;;;;5121712;28;19924;-49
2022/09/25 00:47:13;;;;;;;;;;;;;;;;;;5101510;28;20330;-53
2022/09/25 00:49:40;;;;;;;;;;;;;;;;;;5107891;28;20431;-52
2022/09/25 00:52:08;;;;;;;;;;;;;;;;;;5120586;28;19923;-53
2022/09/25 00:54:38;;;;;;;;;;;;;;;;;;5120124;28;19925;-50
2022/09/25 00:57:06;;;;;;;;;;;;;;;;;;5120479;28;19966;-51
2022/09/25 00:59:36;;;;;;;;;;;;;;;;;;5120756;28;19967;-49
2022/09/25 01:02:02;;;;;;;;;;;;;;;;;;5114435;28;19924;-50
2022/09/25 01:04:31;;;;;;;;;;;;;;;;;;5111505;28;19970;-49
2022/09/25 01:06:58;;;;;;;;;;;;;;;;;;5120613;28;19977;-53
2022/09/25 01:09:25;;;;;;;;;;;;;;;;;;5120476;28;19947;-51
2022/09/25 01:11:53;;;;;;;;;;;;;;;;;;5120326;28;20399;-49
2022/09/25 01:14:20;;;;;;;;;;;;;;;;;;5121303;28;19923;-49
2022/09/25 01:16:50;;;;;;;;;;;;;;;;;;5121043;28;19931;-53
2022/09/25 01:19:22;;;;;;;;;;;;;;;;;;5120365;28;20353;-49
2022/09/25 01:21:50;;;;;;;;;;;;;;;;;;5100386;28;19974;-48
2022/09/25 01:24:23;;;;;;;;;;;;;;;;;;5105416;28;19995;-49
2022/09/25 01:27:09;;;;;;;;;;;;;;;;;;5101499;28;19928;-51
2022/09/25 01:29:39;;;;;;;;;;;;;;;;;;5115974;28;20147;-49
2022/09/25 01:32:12;;;;;;;;;;;;;;;;;;5120124;28;19928;-49
2022/09/25 01:34:44;;;;;;;;;;;;;;;;;;5120028;28;19928;-51
2022/09/25 01:37:15;;;;;;;;;;;;;;;;;;5119426;28;20453;-49
2022/09/25 01:39:45;;;;;;;;;;;;;;;;;;5119519;28;20323;-51
2022/09/25 01:42:17;;;;;;;;;;;;;;;;;;5118973;28;19932;-50
2022/09/25 01:44:46;;;;;;;;;;;;;;;;;;5119334;28;19923;-52
2022/09/25 01:47:17;;;;;;;;;;;;;;;;;;5119540;28;20012;-49
2022/09/25 01:49:46;;;;;;;;;;;;;;;;;;5120037;28;19946;-54
2022/09/25 01:52:15;;;;;;;;;;;;;;;;;;5120062;28;19924;-50
2022/09/25 01:54:43;;;;;;;;;;;;;;;;;;5119658;28;19963;-49
2022/09/25 01:57:12;;;;;;;;;;;;;;;;;;5119970;28;19924;-51
2022/09/25 01:59:40;;;;;;;;;;;;;;;;;;5119999;28;19954;-51
2022/09/25 02:02:12;;;;;;;;;;;;;;;;;;5113526;28;19924;-51
2022/09/25 02:04:41;;;;;;;;;;;;;;;;;;5120016;28;20396;-52
2022/09/25 02:07:10;;;;;;;;;;;;;;;;;;5120557;28;19924;-54
2022/09/25 02:09:38;;;;;;;;;;;;;;;;;;5121147;28;19930;-51
2022/09/25 02:12:07;;;;;;;;;;;;;;;;;;5120307;28;19935;-50
2022/09/25 02:14:35;;;;;;;;;;;;;;;;;;5120023;28;19930;-53
2022/09/25 02:17:05;;;;;;;;;;;;;;;;;;5121149;28;19924;-53
2022/09/25 02:22:19;;;;;;;;;;;;;;;;;;5120635;28;20004;-56
2022/09/25 02:24:48;;;;;;;;;;;;;;;;;;5120945;28;19923;-51
2022/09/25 02:27:14;;;;;;;;;;;;;;;;;;5119445;28;19923;-52
2022/09/25 02:29:41;;;;;;;;;;;;;;;;;;5119626;28;19923;-52
2022/09/25 02:32:09;;;;;;;;;;;;;;;;;;5119443;28;20011;-50
2022/09/25 02:34:37;;;;;;;;;;;;;;;;;;5118957;28;19924;-53
2022/09/25 02:37:09;;;;;;;;;;;;;;;;;;5119216;28;19924;-51
2022/09/25 02:39:35;;;;;;;;;;;;;;;;;;5113692;28;20346;-57
2022/09/25 02:42:09;;;;;;;;;;;;;;;;;;5113690;28;19972;-59
2022/09/25 02:44:42;;;;;;;;;;;;;;;;;;5113259;28;19924;-57
2022/09/25 02:47:14;;;;;;;;;;;;;;;;;;5113109;28;20301;-58
2022/09/25 02:49:47;;;;;;;;;;;;;;;;;;5113333;28;20453;-59
2022/09/25 02:52:16;;;;;;;;;;;;;;;;;;5113365;28;19923;-58
2022/09/25 02:54:45;;;;;;;;;;;;;;;;;;5112396;28;19969;-56
2022/09/25 02:57:15;;;;;;;;;;;;;;;;;;5112850;28;19924;-56
2022/09/25 02:59:42;;;;;;;;;;;;;;;;;;5112741;28;19977;-56
2022/09/25 03:02:10;;;;;;;;;;;;;;;;;;5112871;28;19928;-58
2022/09/25 03:04:37;;;;;;;;;;;;;;;;;;5112667;28;20346;-57
2022/09/25 03:07:06;;;;;;;;;;;;;;;;;;5112487;28;19923;-55
2022/09/25 03:09:34;;;;;;;;;;;;;;;;;;5112765;28;19982;-55
2022/09/25 03:12:02;;;;;;;;;;;;;;;;;;5112721;28;20403;-55
2022/09/25 03:14:29;;;;;;;;;;;;;;;;;;5112407;28;20022;-56
2022/09/25 03:16:57;;;;;;;;;;;;;;;;;;5112638;28;20016;-58
2022/09/25 03:19:25;;;;;;;;;;;;;;;;;;5112374;28;19923;-57
2022/09/25 03:21:53;;;;;;;;;;;;;;;;;;5112812;28;20265;-58
2022/09/25 03:24:21;;;;;;;;;;;;;;;;;;5112638;28;19927;-57
2022/09/25 03:26:47;;;;;;;;;;;;;;;;;;5112454;28;19924;-58
2022/09/25 03:29:16;;;;;;;;;;;;;;;;;;5112385;28;20408;-57
2022/09/25 03:31:44;;;;;;;;;;;;;;;;;;5112727;28;20368;-57
2022/09/25 03:34:11;;;;;;;;;;;;;;;;;;5112539;28;19924;-57
2022/09/25 03:36:37;;;;;;;;;;;;;;;;;;5112522;28;19977;-55
2022/09/25 03:39:05;;;;;;;;;;;;;;;;;;5112311;28;19993;-56
2022/09/25 03:41:34;;;;;;;;;;;;;;;;;;5112536;28;19924;-56
2022/09/25 03:44:00;;;;;;;;;;;;;;;;;;5112117;28;20437;-57
2022/09/25 03:46:28;;;;;;;;;;;;;;;;;;5112342;28;19963;-58
2022/09/25 03:48:55;;;;;;;;;;;;;;;;;;5112218;28;19923;-58
2022/09/25 03:51:22;;;;;;;;;;;;;;;;;;5112232;28;19923;-58
2022/09/25 03:53:49;;;;;;;;;;;;;;;;;;5112184;28;19969;-58
2022/09/25 03:56:16;;;;;;;;;;;;;;;;;;5112379;28;19971;-58
2022/09/25 03:58:45;;;;;;;;;;;;;;;;;;5112017;28;19935;-58
2022/09/25 04:01:11;;;;;;;;;;;;;;;;;;5112544;28;20281;-58
2022/09/25 04:03:38;;;;;;;;;;;;;;;;;;5112484;28;19923;-58
2022/09/25 04:06:05;;;;;;;;;;;;;;;;;;5113732;28;19946;-56
2022/09/25 04:08:32;;;;;;;;;;;;;;;;;;5116431;28;19967;-57
2022/09/25 04:10:59;;;;;;;;;;;;;;;;;;5116322;28;19924;-57
2022/09/25 04:13:28;;;;;;;;;;;;;;;;;;5116148;28;19924;-56
2022/09/25 04:15:56;;;;;;;;;;;;;;;;;;5116265;28;20358;-56
2022/09/25 04:18:23;;;;;;;;;;;;;;;;;;5115628;28;19924;-55
2022/09/25 04:20:50;;;;;;;;;;;;;;;;;;5115945;28;20022;-57
2022/09/25 04:23:16;;;;;;;;;;;;;;;;;;5116143;28;19978;-57
2022/09/25 04:25:44;;;;;;;;;;;;;;;;;;5115757;28;19989;-55
2022/09/25 04:28:10;;;;;;;;;;;;;;;;;;5115582;28;19928;-58
2022/09/25 04:30:37;;;;;;;;;;;;;;;;;;5115987;28;19938;-57
2022/09/25 04:35:49;;;;;;;;;;;;;;;;;;5115767;28;20308;-58
2022/09/25 04:38:15;;;;;;;;;;;;;;;;;;5115576;28;19934;-56
2022/09/25 04:40:42;;;;;;;;;;;;;;;;;;5115182;28;20422;-58
2022/09/25 04:43:08;;;;;;;;;;;;;;;;;;5115550;28;19924;-58
2022/09/25 04:45:35;;;;;;;;;;;;;;;;;;5115511;28;19959;-57
2022/09/25 04:48:02;;;;;;;;;;;;;;;;;;5115454;28;19976;-55
2022/09/25 04:50:30;;;;;;;;;;;;;;;;;;5115701;28;19924;-57
2022/09/25 04:52:57;;;;;;;;;;;;;;;;;;5115385;28;20325;-58
2022/09/25 04:55:24;;;;;;;;;;;;;;;;;;5115401;28;20322;-58
2022/09/25 04:57:51;;;;;;;;;;;;;;;;;;5115244;28;19978;-57
2022/09/25 05:00:18;;;;;;;;;;;;;;;;;;5116003;28;19977;-58
2022/09/25 05:02:45;;;;;;;;;;;;;;;;;;5115245;28;19923;-57
2022/09/25 05:05:11;;;;;;;;;;;;;;;;;;5114738;28;19982;-58
2022/09/25 05:07:39;;;;;;;;;;;;;;;;;;5115220;28;19977;-57
2022/09/25 05:10:07;;;;;;;;;;;;;;;;;;5115070;28;20292;-58
2022/09/25 05:12:34;;;;;;;;;;;;;;;;;;5115302;28;19928;-57
2022/09/25 05:15:01;;;;;;;;;;;;;;;;;;5114734;28;19973;-57
2022/09/25 05:17:27;;;;;;;;;;;;;;;;;;5114258;28;19924;-56
2022/09/25 05:19:54;;;;;;;;;;;;;;;;;;5114836;28;20366;-57
2022/09/25 05:22:20;;;;;;;;;;;;;;;;;;5114796;28;20308;-58
2022/09/25 05:24:49;;;;;;;;;;;;;;;;;;5114478;28;19970;-53
2022/09/25 05:27:16;;;;;;;;;;;;;;;;;;5114580;28;19928;-58
2022/09/25 05:29:43;;;;;;;;;;;;;;;;;;5115055;28;20391;-58
2022/09/25 05:32:09;;;;;;;;;;;;;;;;;;5114867;28;19928;-55
2022/09/25 05:34:36;;;;;;;;;;;;;;;;;;5114290;28;20400;-57
2022/09/25 05:37:03;;;;;;;;;;;;;;;;;;5114730;28;20344;-57
2022/09/25 05:39:29;;;;;;;;;;;;;;;;;;5114133;28;19977;-57
2022/09/25 05:41:57;;;;;;;;;;;;;;;;;;5114614;28;19924;-57
2022/09/25 05:44:27;;;;;;;;;;;;;;;;;;5114253;28;19924;-55
2022/09/25 05:46:55;;;;;;;;;;;;;;;;;;5114216;28;20286;-57
2022/09/25 05:49:22;;;;;;;;;;;;;;;;;;5114522;28;19935;-57
2022/09/25 05:51:48;;;;;;;;;;;;;;;;;;5114533;28;20270;-57
2022/09/25 05:54:15;;;;;;;;;;;;;;;;;;5114367;28;19924;-55
2022/09/25 05:56:41;;;;;;;;;;;;;;;;;;5114753;28;19935;-57
2022/09/25 05:59:09;;;;;;;;;;;;;;;;;;5114765;28;19928;-55
2022/09/25 06:01:35;;;;;;;;;;;;;;;;;;5114550;28;19924;-54
2022/09/25 06:04:03;;;;;;;;;;;;;;;;;;5114483;28;20388;-55
2022/09/25 06:06:30;;;;;;;;;;;;;;;;;;5114672;28;20288;-58
2022/09/25 06:08:57;;;;;;;;;;;;;;;;;;5113957;28;19930;-59
2022/09/25 06:11:23;;;;;;;;;;;;;;;;;;5113997;28;19931;-59
2022/09/25 06:13:50;;;;;;;;;;;;;;;;;;5114037;28;19927;-59
2022/09/25 06:16:18;;;;;;;;;;;;;;;;;;5114101;28;19924;-56
2022/09/25 06:18:45;;;;;;;;;;;;;;;;;;5113551;28;19972;-58
2022/09/25 06:21:11;;;;;;;;;;;;;;;;;;5113914;28;19927;-58
2022/09/25 06:23:38;;;;;;;;;;;;;;;;;;5113625;28;19924;-59
2022/09/25 06:26:06;;;;;;;;;;;;;;;;;;5113712;28;19973;-58
2022/09/25 06:28:34;;;;;;;;;;;;;;;;;;5113717;28;20284;-57
2022/09/25 06:31:01;;;;;;;;;;;;;;;;;;5113954;28;19940;-57
2022/09/25 06:33:28;;;;;;;;;;;;;;;;;;5113789;28;20408;-57
2022/09/25 06:35:55;;;;;;;;;;;;;;;;;;5113743;28;19923;-57
2022/09/25 06:38:21;;;;;;;;;;;;;;;;;;5113742;28;19927;-57
2022/09/25 06:40:48;;;;;;;;;;;;;;;;;;5113530;28;19924;-58
2022/09/25 06:43:15;;;;;;;;;;;;;;;;;;5113921;28;20320;-57
2022/09/25 06:45:42;;;;;;;;;;;;;;;;;;5113254;28;19975;-58
2022/09/25 06:48:10;;;;;;;;;;;;;;;;;;5113676;28;20389;-55
2022/09/25 06:50:40;;;;;;;;;;;;;;;;;;5113866;28;19987;-56
2022/09/25 06:53:07;;;;;;;;;;;;;;;;;;5113592;28;19972;-58
2022/09/25 06:55:33;;;;;;;;;;;;;;;;;;5113033;28;19932;-57
2022/09/25 06:58:00;;;;;;;;;;;;;;;;;;5113182;28;19923;-53
2022/09/25 07:00:27;;;;;;;;;;;;;;;;;;5113523;28;19956;-61
2022/09/25 07:05:37;;;;;;;;;;;;;;;;;;5114453;28;20339;-54
2022/09/25 07:08:05;;;;;;;;;;;;;;;;;;5116281;28;19959;-52
2022/09/25 07:10:31;;;;;;;;;;;;;;;;;;5104806;28;19946;-55
2022/09/25 07:12:58;;;;;;;;;;;;;;;;;;5118061;28;19970;-52
2022/09/25 07:15:25;;;;;;;;;;;;;;;;;;5118652;28;19946;-50
2022/09/25 07:17:51;;;;;;;;;;;;;;;;;;5117656;28;19969;-57
2022/09/25 07:20:20;;;;;;;;;;;;;;;;;;5116315;28;19978;-52
2022/09/25 07:22:47;;;;;;;;;;;;;;;;;;5116020;28;20531;-65
2022/09/25 07:25:15;;;;;;;;;;;;;;;;;;5115839;28;19985;-65
2022/09/25 07:27:41;;;;;;;;;;;;;;;;;;5116130;28;20389;-67
2022/09/25 07:30:08;;;;;;;;;;;;;;;;;;5115298;28;19967;-53
2022/09/25 07:32:35;;;;;;;;;;;;;;;;;;5116000;28;19924;-64
2022/09/25 07:35:01;;;;;;;;;;;;;;;;;;5117595;28;19963;-60
2022/09/25 07:37:28;;;;;;;;;;;;;;;;;;5119899;28;19924;-52
2022/09/25 07:39:55;;;;;;;;;;;;;;;;;;5119491;28;19931;-50
2022/09/25 07:42:22;;;;;;;;;;;;;;;;;;5123228;28;19923;-49
2022/09/25 07:44:49;;;;;;;;;;;;;;;;;;5123172;28;19923;-50
2022/09/25 07:47:16;;;;;;;;;;;;;;;;;;5122990;28;19967;-52
2022/09/25 07:49:43;;;;;;;;;;;;;;;;;;5123095;28;20430;-51
2022/09/25 07:52:09;;;;;;;;;;;;;;;;;;5123443;28;19924;-56
2022/09/25 07:54:36;;;;;;;;;;;;;;;;;;5124343;28;19924;-51
2022/09/25 07:57:03;;;;;;;;;;;;;;;;;;5124413;28;19923;-51
2022/09/25 07:59:30;;;;;;;;;;;;;;;;;;5118802;28;19969;-51
2022/09/25 08:01:58;;;;;;;;;;;;;;;;;;5114426;28;20329;-53
2022/09/25 08:04:24;;;;;;;;;;;;;;;;;;5103956;28;19925;-50
2022/09/25 08:06:51;;;;;;;;;;;;;;;;;;5120157;28;20405;-55
2022/09/25 08:09:17;;;;;;;;;;;;;;;;;;5122886;28;19950;-53
2022/09/25 08:11:44;;;;;;;;;;;;;;;;;;5123701;28;20329;-54
2022/09/25 08:14:13;;;;;;;;;;;;;;;;;;5123882;28;19924;-52
2022/09/25 08:16:41;;;;;;;;;;;;;;;;;;5123631;28;19923;-53
2022/09/25 08:19:07;;;;;;;;;;;;;;;;;;5122977;28;19924;-53
2022/09/25 08:21:34;;;;;;;;;;;;;;;;;;5123676;28;19923;-53
2022/09/25 08:24:01;;;;;;;;;;;;;;;;;;5123165;28;19924;-53
2022/09/25 08:26:28;;;;;;;;;;;;;;;;;;5124117;28;20377;-52
2022/09/25 08:28:55;;;;;;;;;;;;;;;;;;5123481;28;19991;-51
2022/09/25 08:31:22;;;;;;;;;;;;;;;;;;5123586;28;19966;-53
2022/09/25 08:33:50;;;;;;;;;;;;;;;;;;5123836;28;19967;-50
2022/09/25 08:36:17;;;;;;;;;;;;;;;;;;5123316;28;19989;-53
2022/09/25 08:38:44;;;;;;;;;;;;;;;;;;5123188;28;19977;-53
2022/09/25 08:41:14;;;;;;;;;;;;;;;;;;5123509;28;19930;-56
2022/09/25 08:43:46;;;;;;;;;;;;;;;;;;5123740;28;19924;-52
2022/09/25 08:49:05;;;;;;;;;;;;;;;;;;5122658;28;19945;-49
2022/09/25 08:51:32;;;;;;;;;;;;;;;;;;5123178;28;20297;-52
2022/09/25 08:53:59;;;;;;;;;;;;;;;;;;5120451;28;19928;-54
2022/09/25 08:56:27;;;;;;;;;;;;;;;;;;5121711;28;20570;-49
2022/09/25 08:58:54;;;;;;;;;;;;;;;;;;5122469;28;19931;-53
2022/09/25 09:01:23;;;;;;;;;;;;;;;;;;5121177;28;20326;-53
2022/09/25 09:03:52;;;;;;;;;;;;;;;;;;5102687;28;19930;-53
2022/09/25 09:06:21;;;;;;;;;;;;;;;;;;5102317;28;19928;-53
2022/09/25 09:08:51;;;;;;;;;;;;;;;;;;5101844;28;19977;-52
2022/09/25 09:11:19;;;;;;;;;;;;;;;;;;5102789;28;19982;-55
2022/09/25 09:13:50;;;;;;;;;;;;;;;;;;5101979;28;19928;-52
2022/09/25 09:16:19;;;;;;;;;;;;;;;;;;5102421;28;19924;-50
2022/09/25 09:18:45;;;;;;;;;;;;;;;;;;5101968;28;19950;-51
2022/09/25 09:21:14;;;;;;;;;;;;;;;;;;5102120;28;20368;-53
2022/09/25 09:23:45;;;;;;;;;;;;;;;;;;5101763;28;19954;-51
2022/09/25 09:26:15;;;;;;;;;;;;;;;;;;5102020;28;20011;-54
2022/09/25 09:28:56;;;;;;;;;;;;;;;;;;5101548;28;19923;-55
2022/09/25 09:31:27;;;;;;;;;;;;;;;;;;5099607;28;19932;-52
2022/09/25 09:33:57;;;;;;;;;;;;;;;;;;5102237;28;19924;-54
2022/09/25 09:36:29;;;;;;;;;;;;;;;;;;5101565;28;19927;-51
2022/09/25 09:39:01;;;;;;;;;;;;;;;;;;5101305;28;19924;-55
2022/09/25 09:41:33;;;;;;;;;;;;;;;;;;5101639;28;19924;-51
2022/09/25 09:44:06;;;;;;;;;;;;;;;;;;5102061;28;19931;-53
2022/09/25 09:46:39;;;;;;;;;;;;;;;;;;5099495;28;19928;-54
2022/09/25 09:49:10;;;;;;;;;;;;;;;;;;5101211;28;19970;-52
2022/09/25 09:51:40;;;;;;;;;;;;;;;;;;5101819;28;19953;-53
2022/09/25 09:54:11;;;;;;;;;;;;;;;;;;5101298;28;19924;-52
2022/09/25 09:56:37;;;;;;;;;;;;;;;;;;5101636;28;20006;-51
2022/09/25 09:59:06;;;;;;;;;;;;;;;;;;5103789;28;19928;-55
2022/09/25 10:01:36;;;;;;;;;;;;;;;;;;5111027;28;20420;-54
2022/09/25 10:04:05;;;;;;;;;;;;;;;;;;5111981;28;19924;-49
2022/09/25 10:06:34;;;;;;;;;;;;;;;;;;5111123;28;19928;-50
2022/09/25 10:09:01;;;;;;;;;;;;;;;;;;5110101;28;19924;-56
2022/09/25 10:11:31;;;;;;;;;;;;;;;;;;5110944;28;19924;-52
2022/09/25 10:13:58;;;;;;;;;;;;;;;;;;5109411;28;19924;-50
2022/09/25 10:16:25;;;;;;;;;;;;;;;;;;5110445;28;19923;-53
2022/09/25 10:18:55;;;;;;;;;;;;;;;;;;5110794;28;19950;-50
2022/09/25 10:21:23;;;;;;;;;;;;;;;;;;5109032;28;19924;-53
2022/09/25 10:23:51;;;;;;;;;;;;;;;;;;5109569;28;20030;-54
2022/09/25 10:26:29;;;;;;;;;;;;;;;;;;5110615;28;19924;-53
2022/09/25 10:28:57;;;;;;;;;;;;;;;;;;5109604;28;19925;-54
2022/09/25 10:31:24;;;;;;;;;;;;;;;;;;5107709;28;20381;-66
2022/09/25 10:34:01;;;;;;;;;;;;;;;;;;5113379;28;20335;-52
2022/09/25 10:36:32;;;;;;;;;;;;;;;;;;5102545;28;19939;-53
2022/09/25 10:38:58;;;;;;;;;;;;;;;;;;5101348;28;20377;-51
2022/09/25 10:41:26;;;;;;;;;;;;;;;;;;5104521;28;19977;-54
2022/09/25 10:43:54;;;;;;;;;;;;;;;;;;5101824;28;19931;-54
2022/09/25 10:52:01;;;;;;;;;;;;;;;;;;5110159;28;19931;-58
2022/09/25 10:54:27;;;;;;;;;;;;;;;;;;5110133;28;19924;-56
2022/09/25 10:56:54;;;;;;;;;;;;;;;;;;5098438;28;19953;-54
2022/09/25 10:59:22;;;;;;;;;;;;;;;;;;5103200;28;20471;-54
2022/09/25 11:01:50;;;;;;;;;;;;;;;;;;5103043;28;20439;-56
2022/09/25 11:04:18;;;;;;;;;;;;;;;;;;5109485;28;19924;-58
2022/09/25 11:06:46;;;;;;;;;;;;;;;;;;5112957;28;20460;-60
2022/09/25 11:09:13;;;;;;;;;;;;;;;;;;5112606;28;20437;-58
2022/09/25 11:11:40;;;;;;;;;;;;;;;;;;5112910;28;19924;-57
2022/09/25 11:14:08;;;;;;;;;;;;;;;;;;5110175;28;20304;-50
2022/09/25 11:16:50;;;;;;;;;;;;;;;;;;5111848;28;19977;-56
2022/09/25 11:19:19;;;;;;;;;;;;;;;;;;5112532;28;19970;-56
2022/09/25 11:21:49;;;;;;;;;;;;;;;;;;5112907;28;19923;-59
2022/09/25 11:24:20;;;;;;;;;;;;;;;;;;5112319;28;20453;-53
2022/09/25 11:26:48;;;;;;;;;;;;;;;;;;5113042;28;19931;-53
2022/09/25 11:29:15;;;;;;;;;;;;;;;;;;5106972;28;19928;-51
2022/09/25 11:31:43;;;;;;;;;;;;;;;;;;5103057;28;19928;-56
2022/09/25 11:34:16;;;;;;;;;;;;;;;;;;5102100;28;19959;-49
2022/09/25 11:36:45;;;;;;;;;;;;;;;;;;5097691;28;20351;-56
2022/09/25 11:42:02;;;;;;;;;;;;;;;;;;5107654;28;20303;-55
2022/09/25 11:44:30;;;;;;;;;;;;;;;;;;5112819;28;20356;-53
2022/09/25 11:47:01;;;;;;;;;;;;;;;;;;5108473;28;20315;-55
2022/09/25 11:49:30;;;;;;;;;;;;;;;;;;5109156;28;20008;-53
2022/09/25 11:52:21;;;;;;;;;;;;;;;;;;5105068;28;20400;-54
2022/09/25 11:55:12;;;;;;;;;;;;;;;;;;5102449;28;20291;-51
2022/09/25 11:57:43;;;;;;;;;;;;;;;;;;5054011;28;20212;-53
2022/09/25 12:00:14;;;;;;;;;;;;;;;;;;5108138;28;19924;-50
2022/09/25 12:02:59;;;;;;;;;;;;;;;;;;5111625;28;20326;-57
2022/09/25 12:05:37;;;;;;;;;;;;;;;;;;5100218;28;19924;-51
2022/09/25 12:08:11;;;;;;;;;;;;;;;;;;5100343;28;19931;-52
2022/09/25 12:10:46;;;;;;;;;;;;;;;;;;5100538;28;20269;-56
2022/09/25 12:13:18;;;;;;;;;;;;;;;;;;5103389;28;19931;-49
2022/09/25 12:15:49;;;;;;;;;;;;;;;;;;5107940;28;19924;-59
2022/09/25 12:18:21;;;;;;;;;;;;;;;;;;5112497;28;20006;-58
2022/09/25 12:20:52;;;;;;;;;;;;;;;;;;5110215;28;20340;-52
2022/09/25 12:23:24;;;;;;;;;;;;;;;;;;5100379;28;19928;-53
2022/09/25 12:26:06;;;;;;;;;;;;;;;;;;5100371;28;19930;-55
2022/09/25 12:28:40;;;;;;;;;;;;;;;;;;5088942;28;20027;-54
2022/09/25 12:31:10;;;;;;;;;;;;;;;;;;5104849;28;20308;-57
2022/09/25 12:33:40;;;;;;;;;;;;;;;;;;5105473;28;20020;-51
2022/09/25 12:36:11;;;;;;;;;;;;;;;;;;5104089;28;19977;-54
2022/09/25 12:38:42;;;;;;;;;;;;;;;;;;5111128;28;19923;-53
2022/09/25 12:41:11;;;;;;;;;;;;;;;;;;5109648;28;19969;-53
2022/09/25 12:43:41;;;;;;;;;;;;;;;;;;5102423;28;19924;-54
2022/09/25 12:46:10;;;;;;;;;;;;;;;;;;5104225;28;19978;-53
2022/09/25 12:48:39;;;;;;;;;;;;;;;;;;5107255;28;20416;-49
2022/09/25 12:51:12;;;;;;;;;;;;;;;;;;5111984;28;19923;-58
2022/09/25 12:53:40;;;;;;;;;;;;;;;;;;5100664;28;20009;-58
2022/09/25 12:56:12;;;;;;;;;;;;;;;;;;5108910;28;19924;-50
2022/09/25 12:58:45;;;;;;;;;;;;;;;;;;5108090;28;19978;-53
2022/09/25 13:01:16;;;;;;;;;;;;;;;;;;5103158;28;19927;-53
2022/09/25 13:03:46;;;;;;;;;;;;;;;;;;5105514;28;19923;-53
2022/09/25 13:06:16;;;;;;;;;;;;;;;;;;5103385;28;19982;-54
2022/09/25 13:08:44;;;;;;;;;;;;;;;;;;5095035;28;19924;-56
2022/09/25 13:11:14;;;;;;;;;;;;;;;;;;5094710;28;20381;-57
2022/09/25 13:13:44;;;;;;;;;;;;;;;;;;5094657;28;19924;-56
2022/09/25 13:16:14;;;;;;;;;;;;;;;;;;5094887;28;20324;-55
2022/09/25 13:18:47;;;;;;;;;;;;;;;;;;5100079;28;19973;-54
2022/09/25 13:21:26;;;;;;;;;;;;;;;;;;5105829;28;19928;-50
2022/09/25 13:23:53;;;;;;;;;;;;;;;;;;5103578;28;19924;-51
2022/09/25 13:26:25;;;;;;;;;;;;;;;;;;5104158;28;19931;-52
2022/09/25 13:28:55;;;;;;;;;;;;;;;;;;5107264;28;19923;-50
2022/09/25 13:31:22;;;;;;;;;;;;;;;;;;5110589;28;19946;-55
2022/09/25 13:33:53;;;;;;;;;;;;;;;;;;5110259;28;19924;-53
2022/09/25 13:36:31;;;;;;;;;;;;;;;;;;5110737;28;19951;-54
2022/09/25 13:41:48;;;;;;;;;;;;;;;;;;5094285;28;20354;-53
2022/09/25 13:44:33;;;;;;;;;;;;;;;;;;5094256;28;20462;-57
2022/09/25 13:47:14;;;;;;;;;;;;;;;;;;5093785;28;19959;-55
2022/09/25 13:49:49;;;;;;;;;;;;;;;;;;5114939;22;19970;-55
2022/09/25 13:52:29;;;;;;;;;;;;;;;;;;5114251;28;19934;-54
2022/09/25 13:55:08;;;;;;;;;;;;;;;;;;5113954;28;20031;-53
2022/09/25 13:57:57;;;;;;;;;;;;;;;;;;5094809;28;22129;-55
2022/09/25 14:00:24;;;;;;;;;;;;;;;;;;5113775;28;20329;-55
2022/09/25 14:02:50;;;;;;;;;;;;;;;;;;5113335;28;19988;-56
2022/09/25 14:05:20;;;;;;;;;;;;;;;;;;5113475;28;19973;-55
2022/09/25 14:07:49;;;;;;;;;;;;;;;;;;5112929;28;19936;-54
2022/09/25 14:10:16;;;;;;;;;;;;;;;;;;5112692;28;19931;-56
2022/09/25 14:12:44;;;;;;;;;;;;;;;;;;5113672;28;19923;-51
2022/09/25 14:15:21;;;;;;;;;;;;;;;;;;5112935;28;20011;-56
2022/09/25 14:17:49;;;;;;;;;;;;;;;;;;5112825;28;20022;-55
2022/09/25 14:20:33;;;;;;;;;;;;;;;;;;5113174;28;19924;-55
2022/09/25 14:23:03;;;;;;;;;;;;;;;;;;5113640;28;20415;-55
2022/09/25 14:25:32;;;;;;;;;;;;;;;;;;5113162;28;20284;-55
2022/09/25 14:28:00;;;;;;;;;;;;;;;;;;5112925;28;19930;-56
2022/09/25 14:30:29;;;;;;;;;;;;;;;;;;5112762;28;19939;-55
2022/09/25 14:33:16;;;;;;;;;;;;;;;;;;5112792;28;19934;-52
2022/09/25 14:35:46;;;;;;;;;;;;;;;;;;5070879;28;20421;-54
2022/09/25 14:38:34;;;;;;;;;;;;;;;;;;5112934;28;20432;-56
2022/09/25 14:41:05;;;;;;;;;;;;;;;;;;5113166;28;19976;-55
2022/09/25 14:43:43;;;;;;;;;;;;;;;;;;5113157;28;20014;-56
2022/09/25 14:46:12;;;;;;;;;;;;;;;;;;5113059;28;20384;-53
2022/09/25 14:48:41;;;;;;;;;;;;;;;;;;5112517;28;19924;-53
2022/09/25 14:51:09;;;;;;;;;;;;;;;;;;5111592;28;19935;-57
2022/09/25 14:53:38;;;;;;;;;;;;;;;;;;5112932;28;19931;-56
2022/09/25 14:56:10;;;;;;;;;;;;;;;;;;5112929;28;19969;-53
2022/09/25 14:58:38;;;;;;;;;;;;;;;;;;5112428;28;20010;-56
2022/09/25 15:01:10;;;;;;;;;;;;;;;;;;5112573;28;19924;-51
2022/09/25 15:03:40;;;;;;;;;;;;;;;;;;5092495;28;19928;-54
2022/09/25 15:06:07;;;;;;;;;;;;;;;;;;5092671;28;20304;-56
2022/09/25 15:08:35;;;;;;;;;;;;;;;;;;5091979;28;19978;-53
2022/09/25 15:11:09;;;;;;;;;;;;;;;;;;5092099;28;19976;-56
2022/09/25 15:13:36;;;;;;;;;;;;;;;;;;5092513;28;20008;-54
2022/09/25 15:18:53;;;;;;;;;;;;;;;;;;5091939;28;20312;-56
2022/09/25 15:21:23;;;;;;;;;;;;;;;;;;5092112;28;19934;-53
2022/09/25 15:23:50;;;;;;;;;;;;;;;;;;5092265;28;19931;-55
2022/09/25 15:26:19;;;;;;;;;;;;;;;;;;5092333;28;19928;-57
2022/09/25 15:28:46;;;;;;;;;;;;;;;;;;5092213;28;19964;-58
2022/09/25 15:31:14;;;;;;;;;;;;;;;;;;5091819;28;19925;-55
2022/09/25 15:33:41;;;;;;;;;;;;;;;;;;5091658;28;19924;-56
2022/09/25 15:36:15;;;;;;;;;;;;;;;;;;5091876;28;19931;-55
2022/09/25 15:38:43;;;;;;;;;;;;;;;;;;5091768;28;20381;-56
2022/09/25 15:41:13;;;;;;;;;;;;;;;;;;5091955;28;19978;-56
2022/09/25 15:43:42;;;;;;;;;;;;;;;;;;5091905;28;19924;-56
2022/09/25 15:46:27;;;;;;;;;;;;;;;;;;5092092;28;19956;-56
2022/09/25 15:48:55;;;;;;;;;;;;;;;;;;5091646;28;19931;-57
2022/09/25 15:51:23;;;;;;;;;;;;;;;;;;5091696;28;19935;-56
2022/09/25 15:53:52;;;;;;;;;;;;;;;;;;5092000;28;19978;-56
2022/09/25 15:56:20;;;;;;;;;;;;;;;;;;5073820;28;20015;-55
2022/09/25 15:58:50;;;;;;;;;;;;;;;;;;5091556;28;20002;-56
2022/09/25 16:06:50;;;;;;;;;;;;;;;;;;5120331;27;19977;-56
2022/09/25 16:09:28;;;;;;;;;;;;;;;;;;5136172;27;19930;-55
2022/09/25 16:12:10;;;;;;;;;;;;;;;;;;5136403;27;19978;-55
2022/09/25 16:14:38;;;;;;;;;;;;;;;;;;5136376;27;19969;-56
2022/09/25 16:17:15;;;;;;;;;;;;;;;;;;5135884;27;20384;-55
2022/09/25 16:19:41;;;;;;;;;;;;;;;;;;5136237;27;19927;-58
2022/09/25 16:22:15;;;;;;;;;;;;;;;;;;5136257;27;20392;-56
2022/09/25 16:24:42;;;;;;;;;;;;;;;;;;5136279;27;19923;-55
2022/09/25 16:27:21;;;;;;;;;;;;;;;;;;5135584;27;19970;-57
2022/09/25 16:29:49;;;;;;;;;;;;;;;;;;5135688;27;19928;-56
2022/09/25 16:32:18;;;;;;;;;;;;;;;;;;5135771;27;19923;-54
2022/09/25 16:34:51;;;;;;;;;;;;;;;;;;5114937;27;20011;-55
2022/09/25 16:37:20;;;;;;;;;;;;;;;;;;5115009;28;19927;-56
2022/09/25 16:40:07;;;;;;;;;;;;;;;;;;5115069;28;19947;-57
2022/09/25 16:42:39;;;;;;;;;;;;;;;;;;5115140;28;20289;-55
2022/09/25 16:45:14;;;;;;;;;;;;;;;;;;5115375;28;19928;-57
2022/09/25 16:47:41;;;;;;;;;;;;;;;;;;5115418;28;19924;-56
2022/09/25 16:50:08;;;;;;;;;;;;;;;;;;5114797;28;19924;-58
2022/09/25 16:52:37;;;;;;;;;;;;;;;;;;5115114;28;19930;-55
2022/09/25 16:55:07;;;;;;;;;;;;;;;;;;5115242;28;20427;-54
2022/09/25 16:57:34;;;;;;;;;;;;;;;;;;5114763;28;19923;-54
2022/09/25 17:00:02;;;;;;;;;;;;;;;;;;5114754;28;19923;-56
2022/09/25 17:02:34;;;;;;;;;;;;;;;;;;5104381;28;19928;-56
2022/09/25 17:05:02;;;;;;;;;;;;;;;;;;5094554;28;20371;-55
2022/09/25 17:07:29;;;;;;;;;;;;;;;;;;5094378;28;20365;-53
2022/09/25 17:09:57;;;;;;;;;;;;;;;;;;5094055;28;20301;-56
2022/09/25 17:12:25;;;;;;;;;;;;;;;;;;5093915;28;20026;-56
2022/09/25 17:14:53;;;;;;;;;;;;;;;;;;5093045;28;20384;-57
2022/09/25 17:17:21;;;;;;;;;;;;;;;;;;5094149;28;19925;-54
2022/09/25 17:19:50;;;;;;;;;;;;;;;;;;5094040;28;20022;-56
2022/09/25 17:22:16;;;;;;;;;;;;;;;;;;5094033;28;19928;-57
2022/09/25 17:24:43;;;;;;;;;;;;;;;;;;5093644;28;20421;-54
2022/09/25 17:27:11;;;;;;;;;;;;;;;;;;5093941;28;19931;-53
2022/09/25 17:29:38;;;;;;;;;;;;;;;;;;5094089;28;20305;-57